Time;durP1;ratioP1;P1;durP2;ratioP2;P2;SDS_P1;SDS_P2;PMS_P1;PMS_P2;Temp;Humidity;BMP_temperature;BMP_pressure;BME280_temperature;BME280_humidity;BME280_pressure;Samples;Min_cycle;Max_cycle;Signal;HPM_P1;HPM_P2
2021/12/25 00:01:19;;;;;;;24.73;12.27;;;;;;;3.24;94.91;100675.97;5093549;28;20061;-67
2021/12/25 00:03:45;;;;;;;24.42;11.68;;;;;;;3.21;94.67;100676.25;5075294;28;20077;-67
2021/12/25 00:06:10;;;;;;;22.95;11.77;;;;;;;3.10;94.91;100679.78;5093533;28;20031;-67
2021/12/25 00:08:36;;;;;;;24.67;12.65;;;;;;;2.95;95.31;100676.88;5093468;28;20107;-67
2021/12/25 00:11:05;;;;;;;22.83;11.88;;;;;;;2.88;95.40;100668.19;5093437;28;20134;-68
2021/12/25 00:13:31;;;;;;;24.08;11.48;;;;;;;3.03;94.66;100674.44;5075299;28;20539;-66
2021/12/25 00:15:56;;;;;;;24.92;12.25;;;;;;;3.04;94.68;100680.34;5075199;28;20023;-68
2021/12/25 00:18:22;;;;;;;29.02;12.25;;;;;;;3.11;94.28;100679.66;5075267;28;20020;-67
2021/12/25 00:20:48;;;;;;;21.98;11.90;;;;;;;2.72;95.15;100635.59;5075271;28;20482;-68
2021/12/25 00:23:14;;;;;;;24.83;11.60;;;;;;;2.91;94.08;100689.13;5075647;28;20040;-67
2021/12/25 00:25:48;;;;;;;22.88;11.63;;;;;;;3.09;93.78;100694.31;5093398;28;20046;-67
2021/12/25 00:30:57;;;;;;;25.52;11.88;;;;;;;3.04;95.03;100686.25;5096640;28;20085;-67
2021/12/25 00:35:57;;;;;;;19.33;11.13;;;;;;;3.04;94.36;100688.00;5097945;28;20371;-67
2021/12/25 00:38:23;;;;;;;18.75;11.23;;;;;;;3.09;94.31;100679.00;5079613;28;20027;-67
2021/12/25 00:40:48;;;;;;;17.30;9.35;;;;;;;2.77;93.74;100686.22;5079829;28;20118;-68
2021/12/25 00:43:13;;;;;;;17.75;9.95;;;;;;;2.62;94.45;100688.41;5098032;28;20482;-67
2021/12/25 00:45:39;;;;;;;15.90;10.13;;;;;;;2.66;94.28;100690.53;5098538;28;20036;-70
2021/12/25 00:48:05;;;;;;;17.95;10.80;;;;;;;2.82;94.05;100695.09;5098239;28;20402;-67
2021/12/25 00:50:30;;;;;;;16.98;10.80;;;;;;;2.71;93.81;100685.81;5083784;28;20034;-70
2021/12/25 00:52:55;;;;;;;15.90;10.48;;;;;;;2.80;93.28;100699.50;5105824;28;20016;-71
2021/12/25 00:55:20;;;;;;;15.05;10.07;;;;;;;2.78;93.80;100693.72;5088772;28;20044;-68
2021/12/25 00:57:46;;;;;;;15.65;8.95;;;;;;;2.75;92.42;100704.22;5106212;28;20030;-71
2021/12/25 01:00:13;;;;;;;15.45;10.18;;;;;;;2.63;93.45;100698.47;5105873;28;20032;-70
2021/12/25 01:02:42;;;;;;;15.02;9.38;;;;;;;2.70;93.03;100698.72;5106511;28;20052;-69
2021/12/25 01:05:09;;;;;;;13.18;8.40;;;;;;;2.51;93.65;100707.22;5108181;28;20058;-70
2021/12/25 01:07:35;;;;;;;17.95;11.38;;;;;;;2.58;93.41;100705.72;5089123;28;20050;-68
2021/12/25 01:10:03;;;;;;;20.05;12.90;;;;;;;2.57;93.53;100704.13;5099847;28;20024;-66
2021/12/25 01:12:37;;;;;;;16.77;10.65;;;;;;;2.51;93.88;100714.06;5080624;28;20016;-67
2021/12/25 01:15:05;;;;;;;17.13;10.70;;;;;;;2.48;92.96;100726.16;5098819;28;20074;-66
2021/12/25 01:21:09;;;;;;;18.50;11.13;;;;;;;2.50;93.18;100728.53;5099287;28;20099;-66
2021/12/25 01:49:41;;;;;;;21.10;10.63;;;;;;;2.22;92.87;100708.03;5072345;28;20532;-67
2021/12/25 01:52:06;;;;;;;18.45;11.70;;;;;;;2.26;92.93;100714.47;5095781;28;20445;-66
2021/12/25 01:54:32;;;;;;;17.83;11.45;;;;;;;2.41;92.26;100714.06;5095560;28;20123;-67
2021/12/25 01:56:57;;;;;;;17.27;11.65;;;;;;;2.42;91.24;100718.25;5078474;28;20032;-67
2021/12/25 01:59:23;;;;;;;20.63;11.68;;;;;;;2.32;92.47;100720.78;5095757;28;20020;-67
2021/12/25 02:01:48;;;;;;;17.70;11.73;;;;;;;2.28;93.04;100714.34;5095938;28;20127;-67
2021/12/25 02:04:14;;;;;;;19.65;11.05;;;;;;;2.15;92.50;100716.34;5095464;28;20445;-66
2021/12/25 02:06:40;;;;;;;19.58;11.82;;;;;;;2.17;92.61;100717.03;5095606;28;20466;-67
2021/12/25 02:09:05;;;;;;;19.33;11.82;;;;;;;2.10;92.52;100721.03;5095499;28;20028;-66
2021/12/25 02:11:31;;;;;;;18.27;11.27;;;;;;;2.19;91.57;100725.34;5096030;28;20042;-67
2021/12/25 02:13:58;;;;;;;20.17;11.85;;;;;;;2.18;92.32;100734.72;5077280;28;20473;-66
2021/12/25 02:16:28;;;;;;;19.92;11.30;;;;;;;2.22;92.10;100720.78;5095203;28;20098;-67
2021/12/25 02:19:05;;;;;;;19.45;11.52;;;;;;;2.49;91.16;100720.09;5095274;28;20431;-67
2021/12/25 02:21:35;;;;;;;21.65;12.57;;;;;;;2.17;91.96;100729.78;5077161;28;20106;-67
2021/12/25 02:24:03;;;;;;;19.02;11.75;;;;;;;2.15;91.76;100714.59;5077359;28;20024;-67
2021/12/25 02:26:29;;;;;;;23.23;11.65;;;;;;;2.07;91.76;100716.19;5095610;28;20475;-66
2021/12/25 02:28:54;;;;;;;21.48;11.73;;;;;;;1.97;92.69;100711.91;5077067;28;20020;-66
2021/12/25 02:31:20;;;;;;;21.40;12.32;;;;;;;2.24;92.62;100712.97;5095640;28;20031;-67
2021/12/25 02:33:46;;;;;;;20.05;10.30;;;;;;;1.90;91.62;100715.94;5095091;28;20020;-67
2021/12/25 02:36:15;;;;;;;24.17;12.35;;;;;;;1.92;91.21;100728.53;5094965;28;20027;-67
2021/12/25 02:38:41;;;;;;;23.83;12.63;;;;;;;1.69;93.46;100716.00;5094859;28;20076;-66
2021/12/25 02:41:06;;;;;;;23.33;13.13;;;;;;;1.84;93.24;100725.81;5076751;28;20517;-67
2021/12/25 02:43:32;;;;;;;25.50;12.98;;;;;;;1.82;93.49;100718.31;5094646;28;20028;-67
2021/12/25 02:46:03;;;;;;;25.48;13.77;;;;;;;1.75;92.95;100715.47;5094706;28;20138;-67
2021/12/25 02:48:31;;;;;;;28.80;14.30;;;;;;;1.68;93.34;100711.06;5094648;28;20028;-67
2021/12/25 02:50:56;;;;;;;30.00;13.85;;;;;;;1.74;93.09;100724.06;5094647;28;20103;-67
2021/12/25 02:53:22;;;;;;;27.08;13.73;;;;;;;1.77;93.10;100716.16;5094373;28;20117;-66
2021/12/25 02:55:47;;;;;;;26.55;12.65;;;;;;;1.46;93.15;100706.97;5094601;28;20121;-66
2021/12/25 02:58:14;;;;;;;34.08;14.43;;;;;;;1.57;93.83;100707.66;5094472;28;20020;-66
2021/12/25 03:00:56;;;;;;;24.15;14.02;;;;;;;1.58;93.47;100718.66;5076517;28;20044;-66
2021/12/25 03:03:22;;;;;;;24.45;13.07;;;;;;;1.50;93.51;100714.22;5094279;28;20024;-66
2021/12/25 03:05:48;;;;;;;25.40;13.98;;;;;;;1.54;93.13;100714.78;5094357;28;20028;-66
2021/12/25 03:08:14;;;;;;;25.60;13.98;;;;;;;1.57;93.22;100717.84;5076397;28;20026;-66
2021/12/25 03:10:40;;;;;;;24.20;13.63;;;;;;;1.58;92.74;100706.75;5094229;28;20110;-65
2021/12/25 03:15:45;;;;;;;25.00;13.13;;;;;;;1.40;93.32;100715.13;5094484;28;20028;-66
2021/12/25 03:18:33;;;;;;;23.70;13.10;;;;;;;1.60;92.69;100728.72;5075926;28;20020;-66
2021/12/25 03:21:01;;;;;;;25.55;12.68;;;;;;;1.52;93.04;100724.28;5076483;28;20466;-66
2021/12/25 03:23:29;;;;;;;41.03;13.32;;;;;;;1.59;92.96;100725.38;5093984;28;20465;-66
2021/12/25 03:25:56;;;;;;;27.60;13.77;;;;;;;1.62;93.04;100729.41;5076030;28;20119;-66
2021/12/25 03:28:24;;;;;;;24.88;12.52;;;;;;;1.78;92.17;100733.06;5093917;28;20028;-66
2021/12/25 03:30:50;;;;;;;25.92;13.40;;;;;;;1.55;92.92;100736.75;5094164;28;20020;-67
2021/12/25 03:33:18;;;;;;;26.23;12.60;;;;;;;1.72;92.44;100737.88;5093805;28;20431;-66
2021/12/25 03:35:44;;;;;;;24.45;12.80;;;;;;;1.64;92.71;100746.19;5093858;28;20036;-66
2021/12/25 03:38:13;;;;;;;27.80;14.02;;;;;;;1.67;93.47;100740.81;5075602;28;20035;-66
2021/12/25 03:40:39;;;;;;;25.92;13.13;;;;;;;1.56;92.57;100740.94;5075627;28;20462;-67
2021/12/25 03:43:05;;;;;;;26.40;13.05;;;;;;;1.49;92.61;100740.59;5075356;28;20024;-66
2021/12/25 03:45:32;;;;;;;29.80;13.13;;;;;;;1.47;92.81;100745.03;5093952;28;20031;-66
2021/12/25 03:48:11;;;;;;;24.48;12.35;;;;;;;1.61;92.54;100751.50;5075584;28;20494;-66
2021/12/25 03:57:37;;;;;;;26.67;13.18;;;;;;;1.53;92.47;100752.16;5042733;28;20032;-66
2021/12/25 03:59:19;;;;;;;25.55;12.40;;;;;;;1.37;91.93;100768.84;5038744;28;20041;-66
2021/12/25 04:01:51;;;;;;;22.30;12.02;;;;;;;1.42;91.28;100770.09;5075503;28;20390;-66
2021/12/25 04:04:34;;;;;;;22.77;12.07;;;;;;;1.73;91.41;100770.06;5075836;28;20023;-66
2021/12/25 04:09:27;;;;;;;24.58;11.90;;;;;;;1.39;91.82;100772.09;5098028;28;20040;-66
2021/12/25 04:11:54;;;;;;;23.13;11.18;;;;;;;1.30;91.32;100771.91;5097285;28;20381;-66
2021/12/25 04:14:20;;;;;;;27.77;11.90;;;;;;;1.31;91.96;100782.91;5078882;28;20032;-66
2021/12/25 04:16:45;;;;;;;25.05;11.65;;;;;;;1.26;92.15;100788.34;5096403;28;20103;-67
2021/12/25 04:19:11;;;;;;;22.63;10.80;;;;;;;1.10;90.55;100739.66;5096416;28;20082;-66
2021/12/25 04:21:41;;;;;;;26.83;11.20;;;;;;;1.65;90.31;100792.84;5096426;28;20051;-67
2021/12/25 04:24:06;;;;;;;23.40;11.52;;;;;;;1.05;92.33;100785.84;5096898;28;20039;-67
2021/12/25 04:26:31;;;;;;;22.60;9.32;;;;;;;0.94;91.32;100793.53;5096462;28;20350;-67
2021/12/25 04:31:35;;;;;;;22.00;10.18;;;;;;;1.08;90.85;100787.31;5098179;28;20343;-66
2021/12/25 04:48:31;;;;;;;17.90;7.78;;;;;;;0.85;91.06;100812.88;5097610;28;20039;-67
2021/12/25 05:04:33;;;;;;;16.02;6.30;;;;;;;0.88;88.47;100825.34;5097355;28;20039;-66
2021/12/25 05:06:58;;;;;;;10.75;5.47;;;;;;;0.38;89.00;100831.91;5096732;28;20523;-66
2021/12/25 05:09:23;;;;;;;10.20;5.22;;;;;;;0.24;88.58;100796.59;5078436;28;20020;-67
2021/12/25 05:11:49;;;;;;;7.05;4.28;;;;;;;0.29;88.16;100824.97;5077705;28;20063;-66
2021/12/25 05:14:14;;;;;;;7.53;4.07;;;;;;;0.22;88.36;100828.00;5095856;28;20016;-66
2021/12/25 05:16:39;;;;;;;8.15;3.63;;;;;;;0.42;86.82;100839.16;5077628;28;20028;-66
2021/12/25 05:19:05;;;;;;;7.55;3.20;;;;;;;0.06;85.62;100834.38;5096379;28;20462;-66
2021/12/25 05:21:30;;;;;;;4.88;2.50;;;;;;;-0.04;85.21;100845.25;5096328;28;20020;-66
2021/12/25 05:23:58;;;;;;;8.27;3.22;;;;;;;-0.02;85.57;100843.41;5096572;28;20042;-67
2021/12/25 05:26:23;;;;;;;5.00;2.80;;;;;;;-0.08;86.33;100845.59;5096567;28;20022;-66
2021/12/25 05:28:57;;;;;;;9.35;3.20;;;;;;;0.13;86.07;100843.97;5096256;28;20107;-66
2021/12/25 05:31:26;;;;;;;5.57;2.65;;;;;;;0.34;85.15;100854.19;5078123;28;20498;-66
2021/12/25 05:33:52;;;;;;;5.50;2.55;;;;;;;0.06;85.10;100850.44;5096158;28;20473;-66
2021/12/25 05:36:18;;;;;;;7.03;2.50;;;;;;;0.06;85.98;100854.69;5095586;28;20462;-66
2021/12/25 05:38:43;;;;;;;3.85;2.58;;;;;;;0.09;84.94;100846.88;5077737;28;20027;-66
2021/12/25 05:41:11;;;;;;;4.85;2.60;;;;;;;0.15;85.90;100852.28;5096197;28;20059;-67
2021/12/25 05:43:36;;;;;;;7.78;2.50;;;;;;;-0.02;85.35;100852.75;5077678;28;20107;-66
2021/12/25 05:46:02;;;;;;;5.80;2.70;;;;;;;0.04;85.72;100843.88;5077781;28;20058;-67
2021/12/25 05:48:27;;;;;;;5.57;2.28;;;;;;;0.21;84.69;100861.16;5095898;28;20024;-67
2021/12/25 05:50:52;;;;;;;5.40;2.13;;;;;;;0.22;84.21;100865.31;5077700;28;20031;-66
2021/12/25 05:53:18;;;;;;;5.60;2.60;;;;;;;0.06;84.75;100869.94;5095679;28;20077;-67
2021/12/25 05:55:44;;;;;;;4.95;2.13;;;;;;;0.33;84.33;100872.13;5077311;28;20485;-67
2021/12/25 05:58:09;;;;;;;4.55;2.15;;;;;;;0.16;83.64;100873.41;5096193;28;20059;-67
2021/12/25 06:00:36;;;;;;;4.15;1.88;;;;;;;-0.16;83.79;100866.50;5095597;28;20020;-67
2021/12/25 06:03:03;;;;;;;3.78;1.73;;;;;;;0.03;83.40;100875.25;5095558;28;20498;-67
2021/12/25 06:05:29;;;;;;;3.30;1.90;;;;;;;-0.06;83.64;100877.59;5095753;28;20020;-67
2021/12/25 06:07:55;;;;;;;3.63;1.90;;;;;;;-0.20;83.04;100872.75;5095434;28;20062;-66
2021/12/25 06:10:20;;;;;;;4.25;1.80;;;;;;;-0.33;83.56;100877.91;5095889;28;20024;-66
2021/12/25 06:12:49;;;;;;;3.00;1.67;;;;;;;-0.44;84.73;100890.59;5077257;28;20382;-67
2021/12/25 06:15:19;;;;;;;3.17;1.58;;;;;;;-0.38;83.68;100895.22;5095301;28;20028;-67
2021/12/25 06:17:44;;;;;;;5.60;1.60;;;;;;;-0.45;83.13;100894.06;5095205;28;20048;-67
2021/12/25 06:20:10;;;;;;;3.75;1.65;;;;;;;-0.47;82.81;100901.78;5095239;28;20150;-66
2021/12/25 06:22:36;;;;;;;2.05;1.50;;;;;;;-0.62;82.01;100907.97;5095111;28;20490;-67
2021/12/25 06:25:03;;;;;;;3.58;1.85;;;;;;;-0.55;82.91;100893.91;5077007;28;20469;-66
2021/12/25 06:27:28;;;;;;;3.78;1.73;;;;;;;-0.61;82.42;100909.59;5076192;28;20024;-66
2021/12/25 06:29:54;;;;;;;3.78;2.00;;;;;;;-0.42;81.54;100898.91;5076948;28;20358;-68
2021/12/25 06:32:19;;;;;;;6.03;1.80;;;;;;;-0.70;82.25;100910.25;5095039;28;20106;-68
2021/12/25 06:34:45;;;;;;;4.85;1.80;;;;;;;-0.62;83.97;100910.50;5094975;28;20016;-67
2021/12/25 06:37:11;;;;;;;4.35;1.80;;;;;;;-0.52;83.63;100916.56;5094902;28;20020;-67
2021/12/25 06:39:38;;;;;;;3.33;1.80;;;;;;;-0.42;84.23;100900.66;5094812;28;20032;-67
2021/12/25 06:42:03;;;;;;;3.67;1.80;;;;;;;-0.50;84.60;100914.69;5095934;28;20035;-66
2021/12/25 06:44:29;;;;;;;4.20;1.60;;;;;;;-0.71;84.34;100917.06;5095066;28;20028;-66
2021/12/25 06:46:56;;;;;;;3.85;1.77;;;;;;;-0.77;82.42;100914.97;5095427;28;20024;-66
2021/12/25 06:49:23;;;;;;;5.22;1.80;;;;;;;-1.01;83.39;100911.63;5094633;28;20028;-66
2021/12/25 06:51:50;;;;;;;3.13;1.70;;;;;;;-0.96;82.96;100919.72;5094585;28;20363;-66
2021/12/25 06:54:16;;;;;;;4.03;1.58;;;;;;;-0.98;82.06;100916.47;5094398;28;20020;-66
2021/12/25 06:56:43;;;;;;;3.05;1.65;;;;;;;-1.11;83.22;100930.97;5094472;28;20023;-67
2021/12/25 06:59:09;;;;;;;2.85;1.63;;;;;;;-1.20;82.73;100923.09;5076350;28;20031;-67
2021/12/25 07:01:36;;;;;;;2.92;1.65;;;;;;;-1.15;83.36;100927.84;5094441;28;20016;-66
2021/12/25 07:04:01;;;;;;;3.97;1.60;;;;;;;-1.27;82.74;100926.94;5076142;28;20020;-66
2021/12/25 07:06:26;;;;;;;6.95;1.80;;;;;;;-1.11;83.10;100934.31;5094877;28;20030;-66
2021/12/25 07:08:51;;;;;;;4.40;1.60;;;;;;;-1.22;82.80;100934.25;5094351;28;20467;-67
2021/12/25 07:11:18;;;;;;;4.55;1.73;;;;;;;-1.22;82.88;100941.84;5094352;28;20020;-66
2021/12/25 07:13:45;;;;;;;3.53;1.63;;;;;;;-1.15;83.69;100938.78;5094312;28;20439;-66
2021/12/25 07:16:11;;;;;;;4.85;1.73;;;;;;;-1.05;84.38;100945.75;5076425;28;20020;-66
2021/12/25 07:18:36;;;;;;;4.75;1.70;;;;;;;-1.54;83.02;100927.13;5094413;28;20024;-67
2021/12/25 07:21:06;;;;;;;4.30;1.50;;;;;;;-1.68;82.35;100950.06;5094410;28;20101;-66
2021/12/25 07:23:32;;;;;;;5.18;1.48;;;;;;;-1.67;81.57;100939.00;5093985;28;20478;-66
2021/12/25 07:25:59;;;;;;;2.67;1.30;;;;;;;-1.46;83.22;100962.09;5094079;28;20099;-66
2021/12/25 07:28:24;;;;;;;4.28;1.50;;;;;;;-1.65;81.17;100954.94;5093969;28;20031;-68
2021/12/25 07:30:55;;;;;;;3.92;1.70;;;;;;;-1.62;83.15;100958.06;5094236;28;20485;-67
2021/12/25 07:33:20;;;;;;;3.40;1.55;;;;;;;-1.54;82.72;100954.22;5075783;28;20081;-67
2021/12/25 07:35:45;;;;;;;2.13;1.20;;;;;;;-1.56;81.99;100951.75;5093805;28;20024;-67
2021/12/25 07:38:10;;;;;;;6.40;1.58;;;;;;;-1.75;82.66;100959.00;5075716;28;20028;-67
2021/12/25 07:40:36;;;;;;;2.45;1.45;;;;;;;-1.55;82.75;100963.53;5093859;28;20024;-67
2021/12/25 07:43:02;;;;;;;3.30;1.40;;;;;;;-1.43;83.23;100965.22;5075700;28;20478;-67
2021/12/25 07:45:28;;;;;;;1.52;1.05;;;;;;;-1.70;81.82;100965.34;5093621;28;20094;-67
2021/12/25 07:47:59;;;;;;;2.95;1.65;;;;;;;-1.81;82.62;100972.91;5075544;28;20031;-67
2021/12/25 07:50:27;;;;;;;3.30;1.60;;;;;;;-1.84;81.69;100973.09;5093817;28;20032;-67
2021/12/25 07:52:53;;;;;;;1.45;1.00;;;;;;;-1.92;81.17;100966.00;5093766;28;20024;-66
2021/12/25 07:55:18;;;;;;;5.43;1.30;;;;;;;-1.85;81.48;100971.47;5093402;28;20380;-66
2021/12/25 07:57:48;;;;;;;2.15;1.40;;;;;;;-1.95;82.33;100978.06;5094084;28;20028;-66
2021/12/25 08:00:15;;;;;;;5.63;1.23;;;;;;;-1.91;81.58;100977.75;5075784;28;20031;-66
2021/12/25 08:02:43;;;;;;;3.30;1.33;;;;;;;-1.97;81.29;100977.34;5075425;28;20057;-66
2021/12/25 08:05:08;;;;;;;2.70;1.38;;;;;;;-2.10;81.70;100988.28;5093600;28;20032;-66
2021/12/25 08:07:33;;;;;;;3.92;1.55;;;;;;;-1.94;81.44;100983.00;5093513;28;20023;-67
2021/12/25 08:10:11;;;;;;;4.63;1.55;;;;;;;-1.89;81.58;100983.53;5075380;28;20161;-67
2021/12/25 08:12:39;;;;;;;2.25;1.40;;;;;;;-1.98;81.99;100979.06;5076023;28;20469;-68
2021/12/25 08:15:05;;;;;;;4.90;1.75;;;;;;;-1.98;81.58;100983.34;5093486;28;20024;-67
2021/12/25 08:17:30;;;;;;;6.55;2.55;;;;;;;-1.92;81.58;100983.72;5093476;28;20101;-68
2021/12/25 08:19:56;;;;;;;2.00;1.40;;;;;;;-2.09;80.72;100989.91;5075338;28;20061;-67
2021/12/25 08:22:21;;;;;;;5.13;1.90;;;;;;;-2.11;81.32;100995.97;5075337;28;20035;-67
2021/12/25 08:24:46;;;;;;;3.13;1.73;;;;;;;-1.94;80.73;100993.16;5093384;28;20105;-67
2021/12/25 08:27:12;;;;;;;6.88;1.73;;;;;;;-2.12;80.51;100999.41;5075213;28;20020;-66
2021/12/25 08:29:38;;;;;;;3.60;2.05;;;;;;;-1.98;80.96;100996.00;5093335;28;20362;-66
2021/12/25 08:32:04;;;;;;;2.38;1.45;;;;;;;-2.11;81.83;101009.44;5075235;28;20030;-65
2021/12/25 08:34:30;;;;;;;4.40;1.60;;;;;;;-2.04;80.95;101014.94;5093866;28;20458;-67
2021/12/25 08:36:55;;;;;;;3.95;1.55;;;;;;;-1.96;81.57;101017.75;5075565;28;20024;-67
2021/12/25 08:39:21;;;;;;;2.65;1.63;;;;;;;-1.78;80.43;101014.91;5093198;28;20031;-67
2021/12/25 08:41:46;;;;;;;5.28;1.50;;;;;;;-1.66;79.14;101014.13;5093231;28;20070;-67
2021/12/25 08:46:56;;;;;;;2.55;1.50;;;;;;;-1.80;79.41;101030.25;5093681;28;20092;-66
2021/12/25 08:49:25;;;;;;;5.82;1.55;;;;;;;-1.95;78.95;101021.94;5093035;28;20035;-67
2021/12/25 08:51:52;;;;;;;3.30;1.73;;;;;;;-2.11;78.30;100995.97;5077801;28;20390;-67
2021/12/25 08:54:18;;;;;;;1.95;1.40;;;;;;;-1.82;76.59;101017.66;5078438;28;20101;-66
2021/12/25 08:56:43;;;;;;;3.08;1.50;;;;;;;-1.53;76.16;101044.53;5097321;28;20020;-68
2021/12/25 08:59:09;;;;;;;3.17;1.52;;;;;;;-1.61;74.56;101032.38;5096877;28;20431;-67
2021/12/25 09:01:34;;;;;;;1.85;1.10;;;;;;;-1.50;74.24;101044.31;5078322;28;20023;-67
2021/12/25 09:04:00;;;;;;;1.90;1.20;;;;;;;-1.83;73.51;101005.91;5078697;28;20052;-67
2021/12/25 09:06:26;;;;;;;3.95;1.55;;;;;;;-1.68;73.07;101044.63;5078814;28;20370;-67
2021/12/25 09:08:52;;;;;;;1.63;1.15;;;;;;;-1.53;73.28;101042.81;5078525;28;20058;-67
2021/12/25 09:11:18;;;;;;;4.32;1.17;;;;;;;-1.55;72.67;101021.00;5096557;28;20024;-67
2021/12/25 09:13:43;;;;;;;3.65;1.10;;;;;;;-1.33;71.18;101036.41;5078283;28;20108;-68
2021/12/25 09:16:09;;;;;;;2.58;1.30;;;;;;;-1.48;70.39;101040.78;5078266;28;20134;-67
2021/12/25 09:18:34;;;;;;;2.13;1.08;;;;;;;-1.60;70.25;101039.06;5096461;28;20475;-67
2021/12/25 09:20:59;;;;;;;3.03;1.10;;;;;;;-1.53;71.19;101032.66;5096725;28;20040;-66
2021/12/25 09:23:25;;;;;;;1.67;0.90;;;;;;;-1.21;69.75;101047.44;5096438;28;20370;-67
2021/12/25 09:25:50;;;;;;;3.65;1.05;;;;;;;-1.19;69.00;101046.41;5077428;28;20024;-68
2021/12/25 09:28:16;;;;;;;4.13;1.40;;;;;;;-1.26;67.89;101055.38;5077958;28;20035;-66
2021/12/25 09:30:42;;;;;;;1.88;1.02;;;;;;;-1.15;68.67;101052.94;5078048;28;20024;-67
2021/12/25 09:33:08;;;;;;;1.23;0.70;;;;;;;-1.21;67.60;101049.97;5078042;28;20016;-67
2021/12/25 09:35:33;;;;;;;1.67;1.00;;;;;;;-1.21;66.64;101019.53;5077983;28;20178;-67
2021/12/25 09:37:59;;;;;;;1.77;1.00;;;;;;;-0.92;65.75;101068.31;5096090;28;20604;-67
2021/12/25 09:40:24;;;;;;;2.63;0.80;;;;;;;-0.85;67.04;101077.09;5096119;28;20023;-68
2021/12/25 09:42:49;;;;;;;1.85;1.08;;;;;;;-0.48;63.37;101079.63;5095936;28;20032;-67
2021/12/25 09:45:15;;;;;;;0.73;0.60;;;;;;;-0.90;65.59;101066.44;5078250;28;20390;-66
2021/12/25 09:47:41;;;;;;;2.55;0.90;;;;;;;-1.28;65.56;101071.59;5096480;28;20020;-66
2021/12/25 09:50:08;;;;;;;1.77;1.20;;;;;;;-1.29;65.46;101052.25;5077697;28;20020;-68
2021/12/25 09:52:34;;;;;;;1.25;0.70;;;;;;;-1.11;64.31;101076.34;5096076;28;20020;-67
2021/12/25 09:54:59;;;;;;;1.35;0.80;;;;;;;-1.28;64.53;101074.13;5077646;28;20050;-67
2021/12/25 09:57:25;;;;;;;2.03;0.73;;;;;;;-1.36;64.45;101072.09;5077539;28;20046;-67
2021/12/25 09:59:54;;;;;;;1.05;0.70;;;;;;;-1.64;64.78;101081.56;5095655;28;20052;-67
2021/12/25 10:02:20;;;;;;;3.75;1.25;;;;;;;-1.16;65.25;101079.19;5094721;28;20039;-67
2021/12/25 10:05:06;;;;;;;0.80;0.70;;;;;;;-1.16;64.17;101086.78;5077350;28;20031;-67
2021/12/25 10:07:31;;;;;;;1.33;0.68;;;;;;;-1.17;63.40;101091.97;5095626;28;20036;-66
2021/12/25 10:10:15;;;;;;;2.65;0.80;;;;;;;4.25;48.88;101108.97;5095444;28;20035;-67
2021/12/25 10:12:49;;;;;;;2.20;1.00;;;;;;;6.52;41.32;101083.25;5095668;28;20024;-67
2021/12/25 10:15:20;;;;;;;2.22;0.88;;;;;;;8.99;37.02;101049.63;5095329;28;20077;-67
2021/12/25 10:17:57;;;;;;;2.50;1.00;;;;;;;8.44;36.30;101099.47;5095329;28;20141;-68
2021/12/25 10:20:29;;;;;;;2.08;0.90;;;;;;;10.04;34.22;101092.91;5077174;28;20024;-68
2021/12/25 10:23:22;;;;;;;2.90;1.10;;;;;;;8.61;35.67;101089.13;5077098;28;20063;-68
2021/12/25 10:25:49;;;;;;;;;;;;;;;9.31;34.06;101093.47;5077386;28;20099;-67
2021/12/25 10:28:21;;;;;;;2.00;0.98;;;;;;;9.71;31.74;101088.00;5077896;28;19915;-68
2021/12/25 10:30:59;;;;;;;2.92;1.20;;;;;;;10.93;30.00;101084.38;5076994;28;20468;-69
2021/12/25 10:33:25;;;;;;;2.55;1.20;;;;;;;10.27;31.02;101085.13;5095424;28;20104;-69
2021/12/25 10:35:51;;;;;;;3.17;1.20;;;;;;;10.28;31.38;101084.16;5094514;28;20024;-69
2021/12/25 10:38:17;;;;;;;1.65;1.05;;;;;;;9.63;31.60;101071.78;5094980;28;20107;-68
2021/12/25 10:40:43;;;;;;;1.33;0.75;;;;;;;10.68;30.24;101073.53;5095217;28;20023;-68
2021/12/25 10:43:19;;;;;;;2.80;1.10;;;;;;;9.30;31.93;101064.28;5094609;28;20545;-68
2021/12/25 10:45:59;;;;;;;1.38;0.80;;;;;;;5.27;39.46;101054.41;5076504;28;20030;-69
2021/12/25 10:48:29;;;;;;;1.50;0.70;;;;;;;2.03;45.85;101057.25;5076444;28;20028;-67
2021/12/25 10:50:56;;;;;;;2.90;1.00;;;;;;;1.34;48.96;101055.09;5094489;28;20035;-67
2021/12/25 10:53:43;;;;;;;3.80;1.13;;;;;;;0.78;50.26;101050.91;5094491;28;20024;-66
2021/12/25 10:56:14;;;;;;;2.30;1.10;;;;;;;0.63;50.60;101050.34;5094474;28;20438;-67
2021/12/25 10:58:42;;;;;;;1.30;0.70;;;;;;;0.22;51.60;101050.88;5094471;28;20040;-67
2021/12/25 11:01:11;;;;;;;2.38;0.88;;;;;;;0.27;51.85;101053.88;5076126;28;20032;-67
2021/12/25 11:03:42;;;;;;;2.45;1.00;;;;;;;0.20;51.64;101045.09;5076436;28;20035;-66
2021/12/25 11:06:09;;;;;;;2.00;0.90;;;;;;;0.09;52.52;101047.63;5094942;28;20500;-67
2021/12/25 11:08:36;;;;;;;1.83;0.82;;;;;;;0.36;50.77;101043.03;5094463;28;20458;-67
2021/12/25 11:11:11;;;;;;;2.17;0.88;;;;;;;0.13;51.50;101033.75;5094681;28;20053;-68
2021/12/25 11:13:37;;;;;;;1.73;1.00;;;;;;;0.17;52.33;101046.16;5076011;28;20386;-68
2021/12/25 11:16:05;;;;;;;3.95;1.10;;;;;;;0.30;51.72;101052.84;5094273;28;20047;-67
2021/12/25 11:18:53;;;;;;;2.80;1.02;;;;;;;0.28;51.81;101047.06;5094002;28;20028;-67
2021/12/25 11:21:18;;;;;;;2.42;1.08;;;;;;;0.56;50.04;101036.47;5094603;28;20099;-67
2021/12/25 11:23:46;;;;;;;1.60;0.98;;;;;;;0.51;50.47;101033.44;5094804;28;20094;-66
2021/12/25 11:26:12;;;;;;;2.53;0.90;;;;;;;0.41;50.71;101045.25;5094294;28;20024;-66
2021/12/25 11:28:37;;;;;;;3.42;1.27;;;;;;;0.30;50.52;101047.78;5075810;28;20047;-67
2021/12/25 11:31:03;;;;;;;2.22;1.00;;;;;;;0.36;50.53;101047.31;5075579;28;20028;-66
2021/12/25 11:33:28;;;;;;;2.30;1.20;;;;;;;0.82;52.41;101049.75;5075392;28;20459;-67
2021/12/25 11:35:54;;;;;;;0.88;0.60;;;;;;;0.58;51.01;101046.53;5075694;28;20475;-67
2021/12/25 11:38:19;;;;;;;1.60;1.05;;;;;;;0.30;51.14;101053.66;5093694;28;20035;-67
2021/12/25 11:40:51;;;;;;;1.15;0.75;;;;;;;0.62;52.24;101053.00;5094336;28;20020;-67
2021/12/25 11:43:33;;;;;;;3.90;0.77;;;;;;;0.42;49.62;101036.69;5075483;28;20386;-67
2021/12/25 11:45:59;;;;;;;4.27;1.10;;;;;;;1.19;48.42;101041.84;5075533;28;20043;-65
2021/12/25 11:48:24;;;;;;;3.03;0.80;;;;;;;1.74;47.72;101045.09;5093480;28;20266;-66
2021/12/25 11:50:52;;;;;;;2.70;1.13;;;;;;;1.18;47.79;101044.47;5093066;28;20027;-67
2021/12/25 11:53:41;;;;;;;2.65;1.00;;;;;;;0.60;49.46;101049.75;5075147;28;20467;-67
2021/12/25 11:58:52;;;;;;;2.17;0.77;;;;;;;1.10;47.58;101024.72;5093741;28;20036;-67
2021/12/25 12:01:25;;;;;;;2.65;1.30;;;;;;;1.70;45.94;101043.75;5075282;28;20023;-67
2021/12/25 12:04:11;;;;;;;6.80;1.20;;;;;;;1.79;46.33;101043.00;5093520;28;20032;-67
2021/12/25 12:06:45;;;;;;;3.65;0.90;;;;;;;5.19;38.38;101043.09;5075415;28;20028;-66
2021/12/25 12:09:13;;;;;;;1.20;0.70;;;;;;;10.41;29.42;101039.59;5093254;28;20031;-67
2021/12/25 12:11:42;;;;;;;2.88;1.00;;;;;;;10.38;28.46;101032.22;5092964;28;20024;-68
2021/12/25 12:14:11;;;;;;;1.55;1.00;;;;;;;12.69;25.76;101038.69;5092461;28;20042;-67
2021/12/25 12:16:40;;;;;;;1.17;0.95;;;;;;;12.10;25.26;101035.66;5075370;28;20031;-68
2021/12/25 12:19:36;;;;;;;5.32;1.40;;;;;;;11.95;24.85;101030.56;5093738;28;20382;-69
2021/12/25 12:25:11;;;;;;;5.68;1.35;;;;;;;13.94;23.77;101035.47;5093678;28;20123;-70
2021/12/25 12:27:35;;;;;;;2.08;0.82;;;;;;;10.77;25.81;101029.31;5097283;28;20062;-68
2021/12/25 12:30:04;;;;;;;2.28;0.73;;;;;;;10.88;25.29;101035.00;5097375;28;20107;-69
2021/12/25 12:32:43;;;;;;;1.65;0.80;;;;;;;10.11;26.56;101039.56;5079369;28;20133;-68
2021/12/25 12:35:27;;;;;;;3.67;1.15;;;;;;;11.55;25.59;101029.47;5080217;28;20102;-69
2021/12/25 12:37:53;;;;;;;3.20;1.20;;;;;;;12.39;24.17;101036.41;5078829;28;20565;-67
2021/12/25 12:40:25;;;;;;;1.92;0.90;;;;;;;12.31;23.75;101037.34;5096939;28;20028;-69
2021/12/25 12:42:53;;;;;;;;;;;;;;;11.03;25.75;101021.03;5078970;28;20362;-68
2021/12/25 12:45:25;;;;;;;3.65;1.10;;;;;;;13.17;23.79;101036.03;5096529;28;19908;-68
2021/12/25 12:48:14;;;;;;;1.10;1.00;;;;;;;12.71;23.56;101036.72;5097006;28;20032;-68
2021/12/25 12:50:52;;;;;;;2.05;1.05;;;;;;;12.29;24.49;101038.56;5078768;28;20036;-68
2021/12/25 12:53:19;;;;;;;2.33;1.15;;;;;;;10.98;25.29;101035.50;5096968;28;20391;-68